Time;durP1;ratioP1;P1;durP2;ratioP2;P2;SDS_P1;SDS_P2;PMS_P1;PMS_P2;Temp;Humidity;BMP_temperature;BMP_pressure;BME280_temperature;BME280_humidity;BME280_pressure;Samples;Min_cycle;Max_cycle;Signal;HPM_P1;HPM_P2
2022/04/13 00:00:30;;;;;;;11.43;6.60;;;13.00;99.90;;;;;;5044006;28;20225;-85
2022/04/13 00:02:56;;;;;;;9.80;7.03;;;12.90;99.90;;;;;;5077061;28;20593;-85
2022/04/13 00:05:22;;;;;;;11.57;6.47;;;12.90;99.90;;;;;;5061379;28;21116;-85
2022/04/13 00:07:48;;;;;;;11.73;7.40;;;12.90;99.90;;;;;;5061146;28;20189;-86
2022/04/13 00:10:14;;;;;;;18.37;8.23;;;12.80;99.90;;;;;;5045139;28;20689;-85
2022/04/13 00:12:40;;;;;;;10.43;6.13;;;12.80;99.90;;;;;;5077585;28;20756;-84
2022/04/13 00:15:07;;;;;;;8.47;6.03;;;12.80;99.90;;;;;;5044606;28;20278;-85
2022/04/13 00:17:36;;;;;;;12.43;7.10;;;12.80;99.90;;;;;;5078252;28;20249;-85
2022/04/13 00:20:03;;;;;;;10.10;7.83;;;12.70;99.90;;;;;;5062104;28;20224;-86
2022/04/13 00:22:29;;;;;;;11.63;6.30;;;12.70;99.90;;;;;;5045176;28;20288;-85
2022/04/13 00:24:55;;;;;;;18.87;8.43;;;12.60;99.90;;;;;;5078954;28;20617;-86
2022/04/13 00:27:21;;;;;;;11.90;6.97;;;12.60;99.90;;;;;;5063376;28;20220;-86
2022/04/13 00:29:46;;;;;;;9.53;7.10;;;12.60;99.90;;;;;;5061986;28;20255;-85
2022/04/13 00:32:12;;;;;;;12.23;7.07;;;12.60;99.90;;;;;;5062990;28;20627;-85
2022/04/13 00:34:38;;;;;;;9.53;6.57;;;12.50;99.90;;;;;;5044962;28;20549;-85
2022/04/13 00:37:04;;;;;;;11.13;6.97;;;12.50;99.90;;;;;;5061761;28;20181;-84
2022/04/13 00:39:30;;;;;;;11.30;5.50;;;12.40;99.90;;;;;;5061184;28;20247;-85
2022/04/13 00:42:03;;;;;;;12.53;7.17;;;12.40;99.90;;;;;;5044337;28;20245;-85
2022/04/13 00:44:29;;;;;;;12.47;7.67;;;12.40;99.90;;;;;;5062432;28;20263;-85
2022/04/13 00:46:56;;;;;;;12.47;8.23;;;12.40;99.90;;;;;;5061704;28;20603;-85
2022/04/13 00:49:23;;;;;;;15.20;8.63;;;12.40;99.90;;;;;;5045826;28;20322;-85
2022/04/13 00:51:50;;;;;;;14.57;8.57;;;12.50;99.90;;;;;;5061489;28;20333;-85
2022/04/13 00:54:18;;;;;;;16.50;8.30;;;12.50;99.90;;;;;;5062456;28;20286;-85
2022/04/13 00:56:47;;;;;;;13.93;8.00;;;12.50;99.90;;;;;;5057432;28;20217;-85
2022/04/13 00:59:14;;;;;;;14.33;8.63;;;12.50;99.90;;;;;;5047576;28;20228;-86
2022/04/13 01:01:47;;;;;;;11.33;8.43;;;12.50;99.90;;;;;;5065173;28;20258;-86
2022/04/13 01:04:13;;;;;;;11.70;8.20;;;12.50;99.90;;;;;;5067078;28;20280;-85
2022/04/13 01:06:41;;;;;;;18.37;7.00;;;12.60;99.90;;;;;;5065065;28;20236;-84
2022/04/13 01:09:07;;;;;;;25.10;7.30;;;12.60;99.90;;;;;;5066423;28;20256;-86
2022/04/13 01:11:33;;;;;;;12.10;7.50;;;12.60;99.90;;;;;;5064950;28;20244;-85
2022/04/13 01:13:59;;;;;;;11.17;7.50;;;12.70;99.90;;;;;;5064544;28;20374;-85
2022/04/13 01:16:26;;;;;;;14.60;8.50;;;12.70;99.90;;;;;;5048798;28;20194;-86
2022/04/13 01:18:53;;;;;;;10.60;7.33;;;12.70;99.90;;;;;;5047755;28;20217;-85
2022/04/13 01:21:23;;;;;;;13.70;7.93;;;12.70;99.90;;;;;;5064603;28;20979;-85
2022/04/13 01:23:52;;;;;;;8.77;6.73;;;12.70;99.90;;;;;;5080456;28;20225;-86
2022/04/13 01:26:17;;;;;;;11.57;6.97;;;12.70;99.90;;;;;;5030479;28;20225;-86
2022/04/13 01:28:43;;;;;;;14.07;7.23;;;12.70;99.90;;;;;;5046178;28;20635;-86
2022/04/13 01:31:09;;;;;;;12.17;7.17;;;12.80;99.90;;;;;;5063207;28;20190;-86
2022/04/13 01:33:37;;;;;;;8.97;6.33;;;12.90;99.90;;;;;;5062520;28;20286;-86
2022/04/13 01:36:03;;;;;;;8.90;6.33;;;12.90;99.90;;;;;;5063031;28;20228;-85
2022/04/13 01:38:30;;;;;;;10.53;5.97;;;12.90;99.90;;;;;;5045358;28;20208;-86
2022/04/13 01:40:57;;;;;;;9.27;4.27;;;13.00;99.90;;;;;;5046178;28;20497;-87
2022/04/13 01:43:23;;;;;;;9.83;5.10;;;13.10;99.90;;;;;;5080188;28;20185;-84
2022/04/13 01:45:50;;;;;;;11.83;6.00;;;13.20;99.90;;;;;;5065189;28;20237;-85
2022/04/13 01:48:17;;;;;;;7.47;4.67;;;13.20;99.90;;;;;;5064001;28;20318;-85
2022/04/13 01:50:42;;;;;;;8.30;4.73;;;13.20;99.90;;;;;;5064568;28;20881;-85
2022/04/13 01:53:08;;;;;;;8.43;4.40;;;13.30;99.90;;;;;;5063507;28;20240;-85
2022/04/13 01:55:34;;;;;;;9.93;4.30;;;13.30;99.90;;;;;;5047739;28;20193;-85
2022/04/13 01:58:00;;;;;;;8.60;4.87;;;13.40;99.90;;;;;;5064526;28;20687;-85
2022/04/13 02:00:25;;;;;;;7.83;4.90;;;13.30;99.90;;;;;;5064392;28;20971;-85
2022/04/13 02:02:52;;;;;;;9.00;4.90;;;13.30;99.90;;;;;;5064409;28;20217;-86
2022/04/13 02:05:18;;;;;;;7.10;4.93;;;13.30;99.90;;;;;;5047229;28;20314;-85
2022/04/13 02:07:43;;;;;;;13.27;5.47;;;13.30;99.90;;;;;;5080062;28;20279;-85
2022/04/13 02:10:09;;;;;;;9.13;5.03;;;13.30;99.90;;;;;;5064000;28;20253;-84
2022/04/13 02:12:36;;;;;;;8.63;4.83;;;13.30;99.90;;;;;;5063473;28;20582;-85
2022/04/13 02:15:03;;;;;;;7.07;4.60;;;13.20;99.90;;;;;;5063859;28;20237;-86
2022/04/13 02:17:29;;;;;;;6.57;5.17;;;13.20;99.90;;;;;;5064697;28;20625;-85
2022/04/13 02:19:55;;;;;;;6.23;4.60;;;13.20;99.90;;;;;;5045135;28;20220;-85
2022/04/13 02:22:20;;;;;;;8.20;6.40;;;13.20;99.90;;;;;;5063687;28;20197;-85
2022/04/13 02:24:46;;;;;;;12.50;6.73;;;13.10;99.90;;;;;;5045944;28;20771;-85
2022/04/13 02:27:12;;;;;;;8.53;5.27;;;13.10;99.90;;;;;;5063590;28;20235;-85
2022/04/13 02:29:39;;;;;;;9.87;4.63;;;13.10;99.90;;;;;;5079227;28;20225;-85
2022/04/13 02:32:06;;;;;;;6.70;4.53;;;13.00;99.90;;;;;;5071569;28;20236;-85
2022/04/13 02:34:32;;;;;;;9.90;5.27;;;12.90;99.90;;;;;;5046292;28;20200;-85
2022/04/13 02:36:58;;;;;;;10.73;5.30;;;12.80;99.90;;;;;;5046803;28;20225;-85
2022/04/13 02:39:24;;;;;;;6.87;4.93;;;12.80;99.90;;;;;;5063502;28;20221;-84
2022/04/13 02:41:50;;;;;;;5.63;4.80;;;12.70;99.90;;;;;;5046742;28;20227;-86
2022/04/13 02:44:16;;;;;;;5.03;4.50;;;12.70;99.90;;;;;;5046507;28;20218;-85
2022/04/13 02:46:43;;;;;;;16.67;6.57;;;12.60;99.90;;;;;;5046308;28;20204;-86
2022/04/13 02:49:09;;;;;;;8.93;5.40;;;12.60;99.90;;;;;;5046626;28;20247;-86
2022/04/13 02:51:35;;;;;;;10.30;6.10;;;12.60;99.90;;;;;;5045131;28;20248;-85
2022/04/13 02:54:01;;;;;;;7.73;4.77;;;12.50;99.90;;;;;;5063460;28;21155;-83
2022/04/13 02:56:26;;;;;;;10.87;4.83;;;12.50;99.90;;;;;;5063174;28;20229;-84
2022/04/13 02:58:52;;;;;;;11.20;6.00;;;12.50;99.90;;;;;;5046168;28;21068;-85
2022/04/13 03:01:18;;;;;;;7.33;4.73;;;12.40;99.90;;;;;;5046017;28;20605;-85
2022/04/13 03:03:43;;;;;;;9.30;5.23;;;12.40;99.90;;;;;;5046094;28;20209;-86
2022/04/13 03:06:09;;;;;;;11.87;5.97;;;12.40;99.90;;;;;;5062810;28;20240;-87
2022/04/13 03:08:35;;;;;;;13.37;5.73;;;12.50;99.90;;;;;;5063147;28;20220;-86
2022/04/13 03:11:01;;;;;;;10.60;5.80;;;12.50;99.90;;;;;;5045546;28;20243;-85
2022/04/13 03:13:27;;;;;;;15.37;6.90;;;12.50;99.90;;;;;;5046814;28;20197;-85
2022/04/13 03:15:52;;;;;;;8.57;5.23;;;12.60;99.90;;;;;;5063630;28;20266;-86
2022/04/13 03:18:18;;;;;;;11.93;6.17;;;12.60;99.90;;;;;;5063416;28;20715;-86
2022/04/13 03:20:44;;;;;;;14.17;7.20;;;12.50;99.90;;;;;;5071399;28;20217;-85
2022/04/13 03:23:09;;;;;;;7.07;5.03;;;12.50;99.90;;;;;;5062590;28;21069;-85
2022/04/13 03:25:35;;;;;;;13.33;7.10;;;12.50;99.90;;;;;;5045234;28;20280;-84
2022/04/13 03:28:01;;;;;;;9.63;5.87;;;12.40;99.90;;;;;;5062233;28;20827;-85
2022/04/13 03:30:26;;;;;;;13.40;6.20;;;12.40;99.90;;;;;;5061605;28;21123;-85
2022/04/13 03:32:52;;;;;;;11.37;6.03;;;12.40;99.90;;;;;;5061519;28;20268;-85
2022/04/13 03:35:18;;;;;;;8.50;5.57;;;12.40;99.90;;;;;;5071220;28;20221;-86
2022/04/13 03:37:44;;;;;;;13.40;5.57;;;12.30;99.90;;;;;;5062661;28;20660;-84
2022/04/13 03:40:11;;;;;;;16.40;6.73;;;12.30;99.90;;;;;;5045770;28;20197;-85
2022/04/13 03:42:39;;;;;;;11.80;6.73;;;12.30;99.90;;;;;;5043745;28;20248;-85
2022/04/13 03:45:06;;;;;;;17.57;6.73;;;12.30;99.90;;;;;;5039206;28;20313;-85
2022/04/13 03:47:32;;;;;;;11.50;7.23;;;12.30;99.90;;;;;;5078210;28;20308;-85
2022/04/13 03:49:58;;;;;;;15.03;7.30;;;12.30;99.90;;;;;;5079261;28;20386;-85
2022/04/13 03:52:24;;;;;;;8.53;4.87;;;12.40;99.90;;;;;;5063413;28;20240;-85
2022/04/13 03:54:50;;;;;;;13.17;6.57;;;12.30;99.90;;;;;;5060674;28;20253;-86
2022/04/13 03:57:16;;;;;;;11.43;6.33;;;12.30;99.90;;;;;;5060913;28;20334;-85
2022/04/13 03:59:41;;;;;;;15.00;7.00;;;12.40;99.90;;;;;;5060919;28;20217;-84
2022/04/13 04:02:07;;;;;;;9.97;6.17;;;12.30;99.90;;;;;;5062825;28;20988;-85
2022/04/13 04:04:33;;;;;;;17.23;7.90;;;12.30;99.90;;;;;;5046276;28;20201;-86
2022/04/13 04:06:59;;;;;;;11.90;6.67;;;12.40;99.90;;;;;;5072524;28;20308;-84
2022/04/13 04:09:25;;;;;;;13.43;6.83;;;12.40;99.90;;;;;;5061655;28;20245;-86
2022/04/13 04:11:50;;;;;;;11.87;7.10;;;12.40;99.90;;;;;;5061258;28;20224;-86
2022/04/13 04:14:17;;;;;;;10.97;7.47;;;12.40;99.90;;;;;;5061632;28;20404;-86
2022/04/13 04:16:43;;;;;;;8.70;7.77;;;12.50;99.90;;;;;;5077457;28;20220;-85
2022/04/13 04:19:09;;;;;;;11.03;7.07;;;12.50;99.90;;;;;;5078483;28;20213;-85
2022/04/13 04:21:35;;;;;;;15.47;8.07;;;12.50;99.90;;;;;;5058693;28;20220;-85
2022/04/13 04:24:01;;;;;;;11.40;6.97;;;12.50;99.90;;;;;;5043109;28;20217;-85
2022/04/13 04:26:27;;;;;;;10.57;6.83;;;12.50;99.90;;;;;;5061962;28;20235;-85
2022/04/13 04:28:52;;;;;;;14.77;7.07;;;12.50;99.90;;;;;;5043076;28;20658;-86
2022/04/13 04:31:49;;;;;;;18.70;8.00;;;12.50;99.90;;;;;;5078118;28;20271;-86
2022/04/13 04:34:07;;;;;;;16.20;7.50;;;12.50;99.90;;;;;;5074821;28;20221;-86
2022/04/13 04:36:32;;;;;;;12.90;7.97;;;12.50;99.90;;;;;;5060528;28;20224;-86
2022/04/13 04:38:58;;;;;;;12.73;7.17;;;12.50;99.90;;;;;;5060572;28;20259;-86
2022/04/13 04:41:24;;;;;;;11.37;6.97;;;12.50;99.90;;;;;;5075717;28;20278;-87
2022/04/13 04:43:49;;;;;;;13.80;8.47;;;12.50;99.90;;;;;;5059251;28;20197;-85
2022/04/13 04:46:15;;;;;;;15.93;7.17;;;12.40;99.90;;;;;;5043051;28;20197;-85
2022/04/13 04:48:42;;;;;;;10.13;6.50;;;12.50;99.90;;;;;;5060753;28;20247;-85
2022/04/13 04:51:14;;;;;;;11.77;8.03;;;12.50;99.90;;;;;;5061936;28;20225;-85
2022/04/13 04:53:43;;;;;;;13.67;8.47;;;12.50;99.90;;;;;;5041625;28;20699;-87
2022/04/13 04:56:09;;;;;;;11.50;8.13;;;12.50;99.90;;;;;;5059820;28;20217;-87
2022/04/13 04:58:34;;;;;;;17.67;10.03;;;12.50;99.90;;;;;;5044060;28;20205;-87
2022/04/13 05:01:00;;;;;;;15.70;10.93;;;12.50;99.90;;;;;;5058922;28;20739;-86
2022/04/13 05:03:26;;;;;;;12.63;7.57;;;12.50;99.90;;;;;;5021069;28;20229;-86
2022/04/13 05:05:51;;;;;;;11.57;7.97;;;12.50;99.90;;;;;;5075996;28;20712;-86
2022/04/13 05:08:17;;;;;;;17.83;8.57;;;12.40;99.90;;;;;;5076349;28;20261;-85
2022/04/13 05:10:47;;;;;;;15.00;8.57;;;12.40;99.90;;;;;;5004474;28;1099964;-85
2022/04/13 05:13:14;;;;;;;15.20;9.00;;;12.40;99.90;;;;;;5043119;28;20210;-85
2022/04/13 05:15:41;;;;;;;22.33;13.83;;;12.40;99.90;;;;;;5044506;28;20257;-86
2022/04/13 05:18:07;;;;;;;10.83;7.70;;;12.40;99.90;;;;;;5026721;28;20593;-85
2022/04/13 05:20:33;;;;;;;14.27;8.43;;;12.40;99.90;;;;;;5061720;28;20232;-86
2022/04/13 05:22:58;;;;;;;19.63;10.00;;;12.40;99.90;;;;;;5059517;28;20266;-85
2022/04/13 05:25:24;;;;;;;11.77;7.47;;;12.40;99.90;;;;;;5043557;28;20579;-86
2022/04/13 05:27:50;;;;;;;14.50;9.10;;;12.40;99.90;;;;;;5076828;28;20760;-85
2022/04/13 05:30:16;;;;;;;16.20;9.03;;;12.40;99.90;;;;;;5060708;28;20217;-86
2022/04/13 05:32:58;;;;;;;13.07;7.57;;;12.40;99.90;;;;;;5043021;28;20226;-86
2022/04/13 05:35:28;;;;;;;9.90;6.73;;;12.50;99.90;;;;;;5061456;28;20304;-85
2022/04/13 05:37:55;;;;;;;13.40;7.23;;;12.50;99.90;;;;;;5042819;28;20894;-86
2022/04/13 05:40:24;;;;;;;17.13;9.93;;;12.50;99.90;;;;;;5062558;28;20198;-85
2022/04/13 05:42:53;;;;;;;12.73;6.97;;;12.60;99.90;;;;;;5047392;28;20235;-86
2022/04/13 05:45:18;;;;;;;11.53;6.63;;;12.50;99.90;;;;;;5047268;28;20228;-85
2022/04/13 05:47:44;;;;;;;13.67;6.53;;;12.60;99.90;;;;;;5064590;28;20235;-85
2022/04/13 05:50:11;;;;;;;12.17;7.20;;;12.60;99.90;;;;;;5064675;28;20220;-86
2022/04/13 05:52:38;;;;;;;13.80;8.07;;;12.60;99.90;;;;;;5080576;28;20221;-86
2022/04/13 05:55:04;;;;;;;11.30;6.63;;;12.70;99.90;;;;;;5057087;28;20230;-87
2022/04/13 05:57:30;;;;;;;15.37;9.37;;;12.60;99.90;;;;;;5048558;28;20221;-87
2022/04/13 05:59:56;;;;;;;17.40;10.00;;;12.60;99.90;;;;;;5064569;28;20279;-85
2022/04/13 06:02:22;;;;;;;13.63;7.17;;;12.50;99.90;;;;;;5064500;28;20233;-86
2022/04/13 06:04:48;;;;;;;14.57;6.23;;;12.50;99.90;;;;;;5048345;28;20649;-87
2022/04/13 06:07:14;;;;;;;10.27;6.07;;;12.50;99.90;;;;;;5047942;28;20276;-87
2022/04/13 06:09:40;;;;;;;10.73;6.03;;;12.50;99.90;;;;;;5063503;28;20835;-86
2022/04/13 06:12:06;;;;;;;9.97;6.13;;;12.50;99.90;;;;;;5064856;28;20237;-87
2022/04/13 06:14:32;;;;;;;17.23;7.27;;;12.50;99.90;;;;;;5064342;28;20232;-84
2022/04/13 06:16:58;;;;;;;10.87;5.97;;;12.50;99.90;;;;;;5064747;28;20627;-85
2022/04/13 06:19:23;;;;;;;14.73;6.37;;;12.50;99.90;;;;;;5081025;28;20878;-85
2022/04/13 06:21:49;;;;;;;10.10;6.50;;;12.40;99.90;;;;;;5056508;28;20250;-86
2022/04/13 06:24:16;;;;;;;9.90;6.73;;;12.50;99.90;;;;;;5063408;28;20254;-87
2022/04/13 06:26:42;;;;;;;11.63;6.57;;;12.50;99.90;;;;;;5063888;28;20575;-86
2022/04/13 06:29:08;;;;;;;11.47;6.40;;;12.50;99.90;;;;;;5079786;28;20715;-87
2022/04/13 06:31:33;;;;;;;10.63;6.90;;;12.60;99.90;;;;;;5064754;28;20300;-86
2022/04/13 06:33:59;;;;;;;9.47;5.70;;;12.50;99.90;;;;;;5064145;28;20279;-87
2022/04/13 06:36:25;;;;;;;9.60;6.67;;;12.60;99.90;;;;;;5066285;28;20232;-87
2022/04/13 06:38:50;;;;;;;14.57;5.90;;;12.60;99.90;;;;;;5047596;28;20336;-87
2022/04/13 06:41:16;;;;;;;12.60;5.87;;;12.60;99.90;;;;;;5065005;28;20217;-87
2022/04/13 06:43:42;;;;;;;6.30;4.47;;;12.60;99.90;;;;;;5081023;28;20191;-87
2022/04/13 06:46:09;;;;;;;8.47;5.17;;;12.60;99.90;;;;;;5065227;28;20265;-86
2022/04/13 06:48:35;;;;;;;10.33;6.30;;;12.60;99.90;;;;;;5048070;28;20768;-86
2022/04/13 06:51:03;;;;;;;9.63;6.40;;;12.60;99.90;;;;;;5080871;28;20221;-88
2022/04/13 06:53:29;;;;;;;13.33;5.83;;;12.70;99.90;;;;;;5064105;28;20237;-87
2022/04/13 06:55:55;;;;;;;11.80;5.90;;;12.70;99.90;;;;;;5060868;28;20735;-86
2022/04/13 06:58:20;;;;;;;10.47;5.17;;;12.80;99.90;;;;;;5062076;28;20178;-86
2022/04/13 07:00:47;;;;;;;7.27;5.07;;;12.90;99.90;;;;;;5060316;28;20682;-86
2022/04/13 07:03:12;;;;;;;13.87;7.37;;;13.00;99.90;;;;;;5061994;28;20221;-85
2022/04/13 07:05:39;;;;;;;12.23;5.77;;;13.00;99.90;;;;;;5077161;28;20577;-85
2022/04/13 07:08:05;;;;;;;11.30;6.63;;;13.10;99.90;;;;;;5060107;28;20217;-85
2022/04/13 07:10:32;;;;;;;9.93;5.20;;;13.20;99.90;;;;;;5043918;28;20267;-84
2022/04/13 07:12:58;;;;;;;11.43;5.87;;;13.40;99.90;;;;;;5076988;28;20260;-86
2022/04/13 07:15:25;;;;;;;16.43;8.10;;;13.50;99.90;;;;;;5034065;28;20224;-85
2022/04/13 07:17:50;;;;;;;13.77;6.47;;;13.60;99.90;;;;;;5077188;28;20205;-85
2022/04/13 07:20:17;;;;;;;10.07;6.27;;;13.90;99.90;;;;;;5043641;28;20221;-85
2022/04/13 07:22:50;;;;;;;9.10;6.30;;;14.30;99.90;;;;;;5059873;28;20254;-83
2022/04/13 07:25:17;;;;;;;12.87;7.10;;;16.20;99.90;;;;;;5060817;28;20288;-85
2022/04/13 07:27:44;;;;;;;16.87;6.03;;;19.00;99.90;;;;;;5036010;28;20224;-87
2022/04/13 07:30:10;;;;;;;13.63;6.07;;;21.40;99.90;;;;;;5042205;28;20243;-85
2022/04/13 07:32:36;;;;;;;7.53;4.93;;;22.80;99.90;;;;;;5076677;28;20237;-85
2022/04/13 07:35:05;;;;;;;10.90;6.10;;;23.40;99.90;;;;;;5042579;28;20667;-85
2022/04/13 07:37:31;;;;;;;8.77;5.20;;;23.80;99.90;;;;;;5060928;28;20193;-84
2022/04/13 07:39:58;;;;;;;9.27;5.30;;;24.10;99.90;;;;;;5076790;28;20213;-85
2022/04/13 07:42:26;;;;;;;11.00;5.57;;;23.80;99.90;;;;;;5042649;28;20217;-85
2022/04/13 07:44:52;;;;;;;11.40;5.17;;;23.20;99.90;;;;;;5059188;28;20661;-86
2022/04/13 07:47:19;;;;;;;8.90;5.33;;;22.20;99.90;;;;;;5042415;28;20248;-85
2022/04/13 07:49:48;;;;;;;7.87;5.20;;;20.30;99.90;;;;;;5060579;28;20195;-85
2022/04/13 07:52:15;;;;;;;9.87;5.23;;;19.70;99.90;;;;;;5063181;28;20201;-84
2022/04/13 07:54:41;;;;;;;7.20;4.90;;;19.70;99.90;;;;;;5061034;28;20332;-84
2022/04/13 07:57:07;;;;;;;9.17;6.13;;;20.90;99.90;;;;;;5060168;28;20213;-85
2022/04/13 07:59:33;;;;;;;8.47;5.33;;;21.60;99.90;;;;;;5059989;28;20229;-85
2022/04/13 08:01:59;;;;;;;9.00;5.17;;;21.80;99.90;;;;;;5041883;28;20225;-84
2022/04/13 08:04:25;;;;;;;11.30;5.83;;;20.80;99.90;;;;;;5076689;28;20200;-85
2022/04/13 08:06:50;;;;;;;10.80;4.87;;;20.80;99.90;;;;;;5074980;28;20685;-84
2022/04/13 08:09:16;;;;;;;8.07;5.20;;;20.90;99.90;;;;;;5042163;28;20684;-83
2022/04/13 08:11:44;;;;;;;10.00;5.27;;;20.50;99.90;;;;;;5041824;28;20236;-86
2022/04/13 08:14:10;;;;;;;12.83;5.33;;;20.70;99.90;;;;;;5058842;28;20221;-85
2022/04/13 08:16:35;;;;;;;10.67;5.00;;;20.50;99.90;;;;;;5042195;28;20243;-86
2022/04/13 08:19:01;;;;;;;13.43;6.00;;;21.80;99.90;;;;;;5059424;28;20193;-84
2022/04/13 08:21:27;;;;;;;10.23;4.67;;;22.00;99.90;;;;;;5042516;28;20882;-86
2022/04/13 08:23:52;;;;;;;9.17;5.03;;;21.40;99.90;;;;;;5058369;28;20232;-88
2022/04/13 08:26:18;;;;;;;11.77;4.83;;;20.60;99.90;;;;;;5058952;28;20581;-84
2022/04/13 08:28:44;;;;;;;9.17;4.63;;;20.90;99.90;;;;;;5069626;28;20673;-84
2022/04/13 08:31:10;;;;;;;7.37;4.73;;;21.90;99.90;;;;;;5060480;28;20233;-84
2022/04/13 08:33:36;;;;;;;8.77;5.07;;;22.70;99.90;;;;;;5058854;28;20220;-85
2022/04/13 08:36:03;;;;;;;11.53;5.23;;;23.00;99.90;;;;;;5041601;28;20217;-85
2022/04/13 08:38:29;;;;;;;10.50;4.90;;;23.20;99.90;;;;;;5058659;28;20275;-86
2022/04/13 08:41:00;;;;;;;12.43;5.88;;;24.20;99.90;;;;;;5041616;28;20225;-84
2022/04/13 08:43:37;;;;;;;7.57;5.60;;;24.30;99.90;;;;;;5060371;28;20275;-84
2022/04/13 08:46:07;;;;;;;13.45;5.70;;;24.80;99.90;;;;;;5059972;28;20216;-84
2022/04/13 08:48:35;;;;;;;7.60;5.38;;;24.90;99.90;;;;;;5060561;28;20270;-85
2022/04/13 08:51:03;;;;;;;10.05;5.10;;;26.00;99.90;;;;;;5041647;28;20266;-84
2022/04/13 08:53:35;;;;;;;9.85;5.32;;;25.90;99.90;;;;;;5041375;28;20237;-83
2022/04/13 08:56:02;;;;;;;14.45;5.65;;;25.80;99.90;;;;;;5041222;28;20217;-85
2022/04/13 08:59:03;;;;;;;10.88;5.20;;;25.90;99.90;;;;;;5041794;28;20177;-85
2022/04/13 09:01:59;;;;;;;9.13;5.32;;;25.10;99.90;;;;;;5042109;28;20245;-84
2022/04/13 09:04:31;;;;;;;17.63;5.22;;;25.50;99.90;;;;;;5041567;28;20229;-84
2022/04/13 09:07:00;;;;;;;11.30;5.28;;;25.20;99.90;;;;;;5075068;28;20213;-84
2022/04/13 09:09:43;;;;;;;11.23;5.32;;;23.70;99.90;;;;;;5059166;28;21168;-85
2022/04/13 09:12:12;;;;;;;7.97;5.47;;;23.90;99.90;;;;;;5059502;28;20225;-84
2022/04/13 09:14:39;;;;;;;12.60;5.15;;;23.50;99.90;;;;;;5041433;28;20217;-84
2022/04/13 09:17:05;;;;;;;8.77;5.07;;;23.60;99.90;;;;;;5047017;28;20220;-85
2022/04/13 09:19:32;;;;;;;10.80;5.30;;;23.80;99.90;;;;;;5064132;28;20173;-84
2022/04/13 09:21:59;;;;;;;7.05;4.13;;;23.20;99.90;;;;;;5045196;28;20231;-83
2022/04/13 09:24:27;;;;;;;10.48;5.13;;;22.80;99.90;;;;;;5063140;28;20221;-84
2022/04/13 09:26:58;;;;;;;13.77;5.25;;;23.90;99.90;;;;;;5044974;28;20304;-83
2022/04/13 09:29:24;;;;;;;8.73;5.00;;;25.10;99.90;;;;;;5044629;28;20219;-83
2022/04/13 09:31:50;;;;;;;10.63;4.78;;;25.20;99.90;;;;;;5044887;28;20201;-83
2022/04/13 09:34:15;;;;;;;8.48;4.57;;;24.80;99.90;;;;;;5063377;28;20609;-83
2022/04/13 09:36:42;;;;;;;8.40;5.10;;;24.20;99.90;;;;;;5061459;28;20771;-83
2022/04/13 09:39:08;;;;;;;8.07;4.45;;;24.30;99.90;;;;;;5044898;28;20677;-83
2022/04/13 09:41:36;;;;;;;7.55;4.53;;;25.10;99.90;;;;;;5044706;28;20244;-83
2022/04/13 09:44:10;;;;;;;7.90;5.10;;;24.70;99.90;;;;;;5044042;28;20217;-83
2022/04/13 09:46:37;;;;;;;11.82;4.50;;;24.50;99.90;;;;;;5063113;28;20224;-83
2022/04/13 09:49:17;;;;;;;10.52;4.35;;;22.80;99.90;;;;;;5061460;28;20204;-83
2022/04/13 09:51:47;;;;;;;6.45;3.45;;;22.20;99.90;;;;;;5044708;28;20324;-84
2022/04/13 09:54:13;;;;;;;9.32;4.22;;;22.70;99.90;;;;;;5044380;28;20358;-83
2022/04/13 09:56:43;;;;;;;6.55;4.07;;;21.60;99.90;;;;;;5061503;28;20239;-84
2022/04/13 09:59:10;;;;;;;8.65;4.00;;;21.90;99.90;;;;;;5060730;28;20268;-83
2022/04/13 10:01:37;;;;;;;7.22;3.85;;;21.90;99.90;;;;;;5044413;28;20677;-83
2022/04/13 10:04:03;;;;;;;6.30;3.65;;;21.60;99.90;;;;;;5077904;28;20268;-84
2022/04/13 10:06:35;;;;;;;11.30;5.07;;;21.70;99.90;;;;;;5078609;28;20224;-85
2022/04/13 10:09:06;;;;;;;6.38;3.88;;;21.70;99.90;;;;;;5062326;28;20570;-87
2022/04/13 10:11:32;;;;;;;8.00;4.60;;;21.30;99.90;;;;;;5045328;28;20229;-84
2022/04/13 10:14:07;;;;;;;6.13;4.17;;;21.10;99.90;;;;;;5061547;28;20630;-84
2022/04/13 10:16:34;;;;;;;6.97;4.27;;;20.60;99.90;;;;;;5062743;28;20197;-83
2022/04/13 10:19:02;;;;;;;8.93;4.50;;;20.50;99.90;;;;;;5062309;28;20229;-86
2022/04/13 10:21:41;;;;;;;10.40;4.77;;;20.70;99.90;;;;;;5062378;28;20529;-84
2022/04/13 10:24:25;;;;;;;6.77;3.93;;;20.50;99.90;;;;;;5044448;28;20291;-84
2022/04/13 10:27:11;;;;;;;8.40;4.77;;;19.60;99.90;;;;;;5044792;28;20220;-84
2022/04/13 10:29:37;;;;;;;7.20;3.97;;;19.40;99.90;;;;;;5044418;28;20257;-85
2022/04/13 10:32:13;;;;;;;7.03;4.20;;;18.90;99.90;;;;;;5043838;28;20235;-85
2022/04/13 10:34:41;;;;;;;6.27;3.97;;;19.80;99.90;;;;;;5044455;28;20244;-86
2022/04/13 10:37:11;;;;;;;7.63;3.67;;;20.70;99.90;;;;;;5063566;28;20189;-84
2022/04/13 10:39:37;;;;;;;8.90;4.40;;;20.70;99.90;;;;;;5043941;28;20221;-84
2022/04/13 10:42:04;;;;;;;10.83;4.03;;;20.40;99.90;;;;;;5043764;28;20222;-84
2022/04/13 10:44:41;;;;;;;9.07;4.77;;;20.10;99.90;;;;;;5044187;28;20256;-84
2022/04/13 10:47:09;;;;;;;6.60;4.03;;;19.50;99.90;;;;;;5049136;28;20209;-84
2022/04/13 10:49:55;;;;;;;6.40;4.13;;;19.40;99.90;;;;;;5060284;28;20174;-82
2022/04/13 10:52:58;;;;;;;6.00;3.83;;;19.80;99.90;;;;;;5062797;28;20231;-84
2022/04/13 10:55:27;;;;;;;5.17;3.67;;;19.60;99.90;;;;;;5044000;28;20232;-84
2022/04/13 10:58:33;;;;;;;7.83;4.00;;;19.30;99.90;;;;;;5043209;28;20224;-84
2022/04/13 11:01:05;;;;;;;10.30;4.37;;;19.00;99.90;;;;;;5061531;28;20342;-84
2022/04/13 11:03:38;;;;;;;11.20;4.83;;;18.80;99.90;;;;;;5043527;28;20291;-85
2022/04/13 11:06:06;;;;;;;8.30;4.03;;;18.70;99.90;;;;;;5061587;28;20225;-84
2022/04/13 11:08:46;;;;;;;8.70;3.83;;;18.40;99.90;;;;;;5061365;28;20263;-84
2022/04/13 11:11:19;;;;;;;9.30;4.27;;;18.10;99.90;;;;;;5043343;28;20229;-84
2022/04/13 11:13:47;;;;;;;9.80;4.90;;;17.90;99.90;;;;;;5043592;28;20276;-85
2022/04/13 11:16:15;;;;;;;9.53;4.13;;;17.70;99.90;;;;;;5060337;28;20186;-85
2022/04/13 11:18:42;;;;;;;9.70;3.70;;;17.10;99.90;;;;;;5061018;28;20759;-84
2022/04/13 11:21:09;;;;;;;10.90;4.73;;;17.20;99.90;;;;;;5060408;28;20669;-84
2022/04/13 11:23:49;;;;;;;12.30;4.27;;;17.30;99.90;;;;;;5043971;28;20431;-84
2022/04/13 11:26:26;;;;;;;8.83;4.00;;;17.20;99.90;;;;;;5062194;28;20250;-86
2022/04/13 11:29:17;;;;;;;7.37;3.63;;;17.30;99.90;;;;;;5044007;28;20177;-85
2022/04/13 11:32:01;;;;;;;6.83;4.03;;;17.40;99.90;;;;;;5044540;28;20189;-85
2022/04/13 11:34:52;;;;;;;10.50;3.93;;;17.30;99.90;;;;;;5044764;28;20197;-86
2022/04/13 11:37:24;;;;;;;10.20;3.67;;;17.30;99.90;;;;;;5064470;28;20239;-86
2022/04/13 11:39:55;;;;;;;7.93;3.20;;;16.70;99.90;;;;;;5063596;28;20271;-85
2022/04/13 11:42:26;;;;;;;5.03;2.90;;;16.80;99.90;;;;;;5063925;28;20316;-86
2022/04/13 11:45:02;;;;;;;4.60;2.73;;;17.00;99.90;;;;;;5045766;28;20217;-86
2022/04/13 11:47:41;;;;;;;10.17;3.60;;;17.10;99.90;;;;;;5061676;28;20561;-87
2022/04/13 11:50:13;;;;;;;7.43;3.23;;;17.40;99.90;;;;;;5045081;28;20707;-86
2022/04/13 11:52:49;;;;;;;8.13;2.70;;;17.50;99.90;;;;;;5062378;28;20201;-87
2022/04/13 11:55:19;;;;;;;4.40;2.20;;;17.30;99.90;;;;;;5063204;28;20192;-86
2022/04/13 11:58:04;;;;;;;5.07;2.77;;;17.30;99.90;;;;;;5045504;28;20224;-86
2022/04/13 12:00:57;;;;;;;4.57;2.10;;;17.30;99.90;;;;;;5044810;28;20290;-87
2022/04/13 12:03:32;;;;;;;2.90;2.07;;;17.50;99.90;;;;;;5063510;28;20245;-86
2022/04/13 12:05:57;;;;;;;5.07;2.93;;;17.80;99.90;;;;;;5063433;28;20712;-87
2022/04/13 12:08:26;;;;;;;5.53;2.50;;;17.40;99.90;;;;;;5046195;28;20221;-85
2022/04/13 12:11:01;;;;;;;7.77;3.67;;;17.30;99.90;;;;;;5063139;28;20229;-88
2022/04/13 12:13:33;;;;;;;8.33;2.67;;;16.90;99.90;;;;;;5064246;28;20188;-86
2022/04/13 12:16:01;;;;;;;5.00;2.27;;;16.80;99.90;;;;;;5053803;28;20224;-86
2022/04/13 12:18:29;;;;;;;4.27;2.10;;;16.80;99.90;;;;;;5079558;28;20225;-86
2022/04/13 12:21:14;;;;;;;6.70;2.97;;;16.70;99.90;;;;;;5046446;28;20951;-89
2022/04/13 12:23:40;;;;;;;4.80;2.53;;;16.80;99.90;;;;;;5045527;28;20224;-86
2022/04/13 12:26:07;;;;;;;4.47;2.40;;;16.90;99.90;;;;;;5046598;28;20225;-86
2022/04/13 12:28:33;;;;;;;6.23;2.53;;;16.90;99.90;;;;;;5064940;28;20220;-88
2022/04/13 12:31:00;;;;;;;5.03;1.97;;;16.80;99.90;;;;;;5045911;28;20248;-87
2022/04/13 12:33:28;;;;;;;6.10;2.83;;;16.60;99.90;;;;;;5064491;28;20232;-87
2022/04/13 12:35:59;;;;;;;7.67;3.23;;;16.50;99.90;;;;;;5029426;28;20700;-89
2022/04/13 12:38:26;;;;;;;3.30;2.90;;;16.60;99.90;;;;;;5062801;28;20299;-87
2022/04/13 12:41:27;;;;;;;7.90;3.90;;;16.70;99.90;;;;;;5046593;28;20182;-88
2022/04/13 12:43:59;;;;;;;3.87;2.73;;;17.10;99.90;;;;;;5051269;28;20240;-88
2022/04/13 12:46:27;;;;;;;8.17;3.43;;;17.10;99.90;;;;;;5064993;28;20220;-87